Dyess Air Force Base
KDYS : now visible

Airfield :











YOU CAN JOIN US ON...

 
LOGIN :

Register | Disclaimer

   EN    FR    IT 

 









Legend :    VFR   Marginal VFR   IFR   Intensive IFR   Very Intensive IFR
Visi :
Ceiling :
>= 8 km
>= 3000ft
5 to 8 km
1000 to 3000 ft
1500m to 5 km
500 to 1000 ft
800 to 1500m
200 to 500 ft
< 800m
< 200 ft
Symbols :   Thunderstorms  Fog  Heavy snow  Heavy precipitations  Wind > 20 kt






- Airport Elevation : 1789 ft


KDYS - Dyess Air Force Base

CURRENT METAR :
  • 141856Z AUTO 19012KT 10SM FEW150 FEW180 41/10 A2991 RMK AO2 SLP065 T04050098 $

EXPIRED METARs :
  • 141756Z AUTO 22010KT 10SM FEW210 39/10 A2994 RMK AO2 SLP077 T03870101 10389 20274 58008 $
  • 141656Z AUTO 21009KT 10SM FEW190 37/13 A2996 RMK AO2 SLP085 T03680129 $

TAF TAF KDYS
Valid from the 14 at 16:00 until the 15 at 22:00 UTC


141600Z 1416/1522 20012G18KT 9999 FEW160 QNH2979INS
BECMG 1500/1501 18012KT 9999 SKC QNH2980INS
BECMG 1508/1509 27012KT 9999 SCT160 QNH2986INS
BECMG 1519/1520 05012G18KT 9999 VCTS BKN120CB QNH2984INS TX43/1422Z TN24/1512Z
KZFW FIR / North America



MET'MAP, your aeronautical weather chart ! - Copyright ORBIFLY December 2007 - Disclaimer

ORBIFLY MET'MAP TEAM :

Programming & Development : Alexandra Zaïnal
Concept & original design : Baudouin d'Aumeries
Assistance for programming : Marc-Olivier Méhu
Technical & hardware support : Manuel Goepfert

Contact : metmap@orbifly.com




SOURCES & CREDITS :

   NOAA       Earth
Advisory